Jepson Prairie Reserve, California Weather observations

Data are for 10 minute period ending at time listed.
 Day   Time   Solar   Ave.   Ave.  Ave.  Vector  Max.   Baro.   Total    
  of    of     Rad.   Air    Rel.  Wind   Wind   Wind  Press.  Precip.   
Year   Day            Temp.  Hum.  Speed  Dir.   Gust                    
2017   (PST)  Kw/m2    F      %     mph   deg.    mph    mb.     in.     
-------------------------------------------------------------------------
 206   17:10   0.33   81.6    40   19.1   219    23.2   1009.1    0.00 
 206   17:20   0.32   80.6    41   20.0   220    25.0   1009.1    0.00 
 206   17:30   0.28   80.2    41   19.3   217    23.5   1009.1    0.00 
 206   17:40   0.25   79.4    43   20.4   214    25.0   1009.1    0.00 
 206   17:50   0.22   78.8    44   21.9   214    26.2   1009.5    0.00 
 206   18:00   0.19   77.5    46   23.6   213    28.9   1009.5    0.00 
 206   18:10   0.16   76.4    47   23.6   213    28.9   1009.5    0.00 
 206   18:20   0.14   75.5    49   23.1   214    29.2   1009.8    0.00 
 206   18:30   0.11   74.5    50   22.1   213    27.0   1009.8    0.00 
 206   18:40   0.08   73.4    52   21.6   215    27.2   1010.2    0.00 
 206   18:50   0.06   72.4    54   20.9   212    26.3   1010.2    0.00 
 206   19:00   0.04   71.6    56   22.5   210    28.0   1010.2    0.00 
 206   19:10   0.02   70.9    57   21.9   214    26.7   1010.2    0.00 
 206   19:20   0.01   70.1    59   22.1   214    28.3   1010.5    0.00 
 206   19:30   0.00   69.4    60   22.5   214    27.2   1010.5    0.00 
 206   19:40   0.00   68.6    62   21.9   215    27.6   1010.5    0.00 
 206   19:50   0.00   67.7    64   21.9   217    28.7   1010.5    0.00 
 206   20:00   0.00   66.8    65   23.0   220    28.4   1010.5    0.00 
 206   20:10   0.00   66.3    66   24.1   220    31.5   1010.5    0.00 
 206   20:20   0.00   65.8    67   23.5   219    29.1   1010.5    0.00 
 206   20:30   0.00   65.5    68   23.9   219    30.1   1010.8    0.00 
 206   20:40   0.00   65.3    69   21.6   216    27.4   1010.8    0.00 
 206   20:50   0.00   64.9    69   22.7   219    28.4   1010.8    0.00 
 206   21:00   0.00   64.6    70   21.2   219    26.9   1010.8    0.00 
 206   21:10   0.00   64.3    71   20.0   214    24.8   1011.2    0.00 
 206   21:20   0.00   64.4    70   20.3   210    26.0   1011.2    0.00 
 206   21:30   0.00   64.6    70   19.7   209    24.8   1011.2    0.00 
 206   21:40   0.00   64.6    70   19.8   207    24.5   1011.2    0.00 
 206   21:50   0.00   64.3    71   19.8   208    23.5   1011.2    0.00 
 206   22:00   0.00   64.0    72   19.6   208    23.6   1011.5    0.00 
 206   22:10   0.00   63.7    73   20.0   210    25.0   1011.5    0.00 
 206   22:20   0.00   63.6    73   19.8   207    24.3   1011.5    0.00 
 206   22:30   0.00   63.5    72   20.3   205    24.8   1011.5    0.00 
 206   22:40   0.00   63.3    71   21.1   205    26.6   1011.5    0.00 
 206   22:50   0.00   63.2    70   21.8   206    26.6   1011.5    0.00 
 206   23:00   0.00   63.2    70   21.4   208    27.0   1011.5    0.00 
 206   23:10   0.00   63.0    71   21.5   208    26.8   1011.5    0.00 
 206   23:20   0.00   62.9    71   21.3   205    25.9   1011.5    0.00 
 206   23:30   0.00   62.8    71   21.7   206    26.7   1011.2    0.00 
 206   23:40   0.00   62.7    71   20.9   204    28.1   1011.2    0.00 
 206   23:50   0.00   62.7    71   21.4   203    28.1   1011.2    0.00 
 207    0:00   0.00   62.6    72   19.9   203    25.9   1011.2    0.00 
 207    0:10   0.00   62.5    74   18.3   202    22.7   1011.2    0.00 
 207    0:20   0.00   62.3    75   19.0   202    27.3   1011.2    0.00 
 207    0:30   0.00   61.8    80   20.2   200    25.9   1011.2    0.00 
 207    0:40   0.00   61.5    81   20.8   199    26.8   1011.2    0.00 
 207    0:50   0.00   61.2    83   19.4   200    24.5   1011.2    0.00 
 207    1:00   0.00   61.1    82   19.4   204    23.5   1011.2    0.00 
 207    1:10   0.00   61.0    82   18.5   202    23.3   1011.2    0.00 
 207    1:20   0.00   60.8    82   18.8   205    23.7   1011.2    0.00 
 207    1:30   0.00   60.7    82   18.2   209    23.9   1011.2    0.00 
 207    1:40   0.00   60.5    83   18.0   212    23.8   1011.2    0.00 
 207    1:50   0.00   60.3    81   18.9   214    24.3   1011.2    0.00 
 207    2:00   0.00   60.1    81   19.6   212    24.9   1011.2    0.00 
 207    2:10   0.00   59.8    80   21.1   212    25.9   1011.2    0.00 
 207    2:20   0.00   59.6    81   19.9   212    24.7   1011.2    0.00 
 207    2:30   0.00   59.5    80   20.2   211    27.1   1011.2    0.00 
 207    2:40   0.00   59.3    80   19.6   209    23.8   1011.2    0.00 
 207    2:50   0.00   59.2    80   19.6   209    23.1   1011.2    0.00 
 207    3:00   0.00   59.1    81   19.5   209    23.2   1011.2    0.00 
 207    3:10   0.00   59.0    81   17.9   212    23.0   1011.2    0.00 
 207    3:20   0.00   58.8    82   18.9   213    23.6   1011.2    0.00 
 207    3:30   0.00   58.7    82   20.3   209    26.2   1011.2    0.00 
 207    3:40   0.00   58.7    83   20.9   208    27.0   1011.2    0.00 
 207    3:50   0.00   58.6    83   20.2   208    26.2   1011.5    0.00 
 207    4:00   0.00   58.6    84   19.9   207    26.1   1011.5    0.00 
 207    4:10   0.00   58.7    83   20.2   208    25.9   1011.5    0.00 
 207    4:20   0.00   58.6    84   20.8   208    27.2   1011.5    0.00 
 207    4:30   0.00   58.6    83   19.7   209    26.1   1011.9    0.00 
 207    4:40   0.00   58.4    84   19.3   213    25.0   1011.9    0.00 
 207    4:50   0.00   58.2    85   17.8   216    23.2   1011.9    0.00 
 207    5:00   0.00   58.1    85   17.2   220    22.3   1012.2    0.00 
 207    5:10   0.00   58.0    85   15.8   221    19.7   1012.2    0.00 
 207    5:20   0.01   58.2    84   17.7   222    22.5   1012.5    0.00 
 207    5:30   0.03   58.4    83   19.0   219    24.4   1012.5    0.00 
 207    5:40   0.05   58.3    84   19.0   219    24.3   1012.9    0.00 
 207    5:50   0.07   58.4    84   18.6   220    24.2   1012.9    0.00 
 207    6:00   0.09   58.9    82   16.1   216    20.8   1012.9    0.00 
 207    6:10   0.12   59.3    81   17.0   214    20.5   1013.2    0.00 
 207    6:20   0.15   59.9    80   19.1   211    22.6   1013.2    0.00 
 207    6:30   0.18   60.5    78   18.4   212    22.8   1013.2    0.00 
 207    6:40   0.21   61.1    76   20.2   213    24.7   1013.2    0.00 
 207    6:50   0.24   61.9    74   19.6   212    25.6   1013.5    0.00 
 207    7:00   0.27   62.5    72   20.9   215    27.1   1013.5    0.00 
 207    7:10   0.30   63.1    70   21.0   211    24.8   1013.5    0.00 
 207    7:20   0.34   63.9    69   20.3   210    25.4   1013.9    0.00 
 207    7:30   0.37   64.6    67   20.2   216    24.9   1013.9    0.00 
 207    7:40   0.40   65.3    65   20.1   212    26.3   1013.9    0.00 
 207    7:50   0.43   66.4    64   17.4   216    21.6   1014.2    0.00 
 207    8:00   0.46   67.2    62   18.9   219    23.0   1014.2    0.00 
 207    8:10   0.49   67.4    60   19.7   215    23.9   1014.2    0.00 
 207    8:20   0.52   68.5    58   17.9   213    22.4   1014.2    0.00 
 207    8:30   0.55   69.7    55   17.9   211    22.9   1014.2    0.00 
 207    8:40   0.58   70.2    55   18.1   214    22.6   1014.2    0.00 
 207    8:50   0.61   70.9    53   18.1   210    23.6   1014.2    0.00 
 207    9:00   0.63   71.7    52   17.5   217    21.5   1014.2    0.00 
 207    9:10   0.66   72.2    51   17.6   215    22.0   1014.2    0.00 
 207    9:20   0.68   72.4    50   17.0   207    20.2   1014.2    0.00 
 207    9:30   0.71   73.5    49   17.4   214    21.9   1014.2    0.00 
 207    9:40   0.73   74.8    47   16.8   214    21.3   1014.2    0.00 
 207    9:50   0.69   75.7    46   16.1   216    20.8   1014.2    0.00 
 207   10:00   0.73   76.6    45   16.5   219    21.2   1014.2    0.00 
 207   10:10   0.76   76.6    44   16.9   219    21.0   1014.2    0.00 
 207   10:20   0.81   77.0    43   16.8   214    20.9   1014.2    0.00 
 207   10:30   0.83   78.1    42   15.0   218    18.3   1014.2    0.00 
 207   10:40   0.84   78.5    41   15.1   215    19.4   1013.9    0.00 
 207   10:50   0.86   79.8    40   14.6   214    19.6   1013.9    0.00 
 207   11:00   0.83   80.4    40   15.3   205    19.3   1013.9    0.00 
 207   11:10   0.88   80.8    40   15.0   207    18.0   1013.9    0.00 
 207   11:20   0.89   81.0    40   15.2   207    21.0   1013.5    0.00 
 207   11:30   0.90   82.1    40   14.8   210    18.9   1013.5    0.00 
 207   11:40   0.91   82.9    39   15.1   211    19.3   1013.5    0.00 
 207   11:50   0.91   83.2    39   14.4   208    18.9   1013.5    0.00 
 207   12:00   0.91   84.5    37   13.3   204    18.2   1013.5    0.00 
 207   12:10   0.92   85.5    34   13.8   207    17.7   1013.2    0.00 
 207   12:20   0.92   86.4    34   13.4   206    17.9   1013.2    0.00 
 207   12:30   0.92   87.0    33   13.6   202    18.4   1012.9    0.00 
 207   12:40   0.91   87.3    32   12.8   207    16.7   1012.9    0.00 
 207   12:50   0.91   87.9    31   13.3   206    18.9   1012.5    0.00 
 207   13:00   0.91   88.6    30   12.6   208    18.4   1012.5    0.00 
 207   13:10   0.90   89.5    28   12.9   204    17.8   1012.2    0.00 
 207   13:20   0.89   90.8    26   12.1   203    17.6   1012.2    0.00 
 207   13:30   0.89   90.3    25   12.1   203    16.3   1012.2    0.00 
 207   13:40   0.87   90.6    24   11.9   194    15.5   1011.9    0.00 
 207   13:50   0.86   91.0    22   12.2   206    16.3   1011.9    0.00 
 207   14:00   0.85   91.7    21   13.0   203    17.2   1011.9    0.00 
 207   14:10   0.83   91.4    24   14.4   204    19.2   1011.5    0.00 
 207   14:20   0.81   91.5    24   14.4   205    18.3   1011.5    0.00 
 207   14:30   0.79   91.4    25   14.0   203    18.6   1011.5    0.00 
 207   14:40   0.77   91.5    26   14.5   202    19.7   1011.5    0.00 
 207   14:50   0.76   91.3    24   14.7   209    19.2   1011.2    0.00 
 207   15:00   0.73   91.4    24   14.9   210    19.8   1011.2    0.00 
 207   15:10   0.71   91.5    24   14.1   209    18.6   1011.2    0.00 
 207   15:20   0.68   91.4    24   13.7   208    19.1   1011.2    0.00 
 207   15:30   0.66   91.4    24   15.1   210    18.8   1010.8    0.00 
 207   15:40   0.63   91.5    24   15.7   210    20.2   1010.8    0.00 
 207   15:50   0.60   91.4    24   16.0   218    19.5   1010.8    0.00 
 207   16:00   0.57   90.7    24   16.6   223    20.3   1010.8    0.00 
 207   16:10   0.54   90.9    24   16.3   214    21.5   1010.5    0.00 
 207   16:20   0.51   90.2    25   17.2   219    21.2   1010.5    0.00 
 207   16:30   0.48   90.2    25   16.6   214    20.5   1010.5    0.00 
 207   16:40   0.45   89.9    25   16.6   214    20.2   1010.2    0.00 
 207   16:50   0.42   89.2    26   17.6   215    21.5   1010.2    0.00 
 207   17:00   0.38   88.3    29   18.4   214    21.7   1010.2    0.00 

Return to Jepson Prairie Reserve graphs page.


Western Regional Climate Center,wrcc@dri.edu